Time;durP1;ratioP1;P1;durP2;ratioP2;P2;SDS_P1;SDS_P2;PMS_P1;PMS_P2;Temp;Humidity;BMP_temperature;BMP_pressure;BME280_temperature;BME280_humidity;BME280_pressure;Samples;Min_cycle;Max_cycle;Signal;HPM_P1;HPM_P2
2023/10/29 00:00:47;;;;;;;5.95;2.20;;;11.90;99.90;;;;;;5113146;27;20039;-89
2023/10/29 00:03:13;;;;;;;2.95;1.40;;;11.90;99.90;;;;;;5117367;27;20050;-89
2023/10/29 00:05:38;;;;;;;5.45;1.75;;;11.90;99.90;;;;;;5113798;27;20047;-89
2023/10/29 00:08:04;;;;;;;5.32;2.00;;;11.90;99.90;;;;;;5113081;27;20049;-87
2023/10/29 00:10:30;;;;;;;8.65;5.03;;;11.90;99.90;;;;;;5105607;28;20063;-89
2023/10/29 00:12:55;;;;;;;4.22;1.67;;;12.00;99.90;;;;;;5104900;27;20039;-89
2023/10/29 00:15:21;;;;;;;5.85;1.88;;;12.00;99.90;;;;;;5105754;27;20043;-89
2023/10/29 00:17:47;;;;;;;5.85;1.70;;;12.00;99.90;;;;;;5102026;28;20776;-89
2023/10/29 00:20:13;;;;;;;6.93;2.53;;;11.90;99.90;;;;;;5095453;28;20387;-89
2023/10/29 00:22:38;;;;;;;4.80;2.15;;;11.90;99.90;;;;;;5104015;28;20048;-89
2023/10/29 00:25:04;;;;;;;5.25;2.03;;;12.00;99.90;;;;;;5078720;28;20551;-89
2023/10/29 00:27:30;;;;;;;5.63;2.13;;;12.00;99.90;;;;;;5085632;28;20043;-89
2023/10/29 00:29:55;;;;;;;8.57;4.55;;;12.00;99.90;;;;;;5113801;28;20036;-89
2023/10/29 00:32:21;;;;;;;4.55;1.80;;;12.00;99.90;;;;;;5094968;28;20514;-88
2023/10/29 00:34:48;;;;;;;4.68;1.80;;;12.10;99.90;;;;;;5095511;28;20119;-89
2023/10/29 00:37:14;;;;;;;4.35;1.80;;;12.00;99.90;;;;;;5095119;28;20092;-89
2023/10/29 00:39:40;;;;;;;7.82;2.47;;;12.00;99.90;;;;;;5094807;28;20118;-89
2023/10/29 00:42:06;;;;;;;4.88;2.00;;;12.00;99.90;;;;;;5078266;28;20116;-88
2023/10/29 00:44:32;;;;;;;5.57;2.10;;;12.10;99.90;;;;;;5094833;28;20071;-89
2023/10/29 00:46:58;;;;;;;4.93;2.13;;;12.10;99.90;;;;;;5078239;28;20097;-88
2023/10/29 00:49:24;;;;;;;8.20;5.00;;;12.10;99.90;;;;;;5113064;28;20126;-89
2023/10/29 00:51:50;;;;;;;4.70;1.60;;;12.10;99.90;;;;;;5094699;28;20067;-88
2023/10/29 00:54:17;;;;;;;4.60;1.88;;;12.20;99.90;;;;;;5095011;28;20115;-88
2023/10/29 00:56:42;;;;;;;5.22;1.98;;;12.10;99.90;;;;;;5077955;28;20043;-89
2023/10/29 00:59:11;;;;;;;6.47;2.25;;;12.20;99.90;;;;;;5094266;28;20047;-88
2023/10/29 01:01:37;;;;;;;4.63;1.92;;;12.20;99.90;;;;;;5077248;28;20123;-89
2023/10/29 01:04:04;;;;;;;8.23;4.70;;;12.20;99.90;;;;;;5112653;28;20127;-88
2023/10/29 01:06:31;;;;;;;8.35;2.30;;;12.30;99.90;;;;;;5094631;28;20156;-89
2023/10/29 01:08:57;;;;;;;5.13;1.77;;;12.30;99.90;;;;;;5077535;28;20126;-89
2023/10/29 01:11:22;;;;;;;6.03;1.75;;;12.20;99.90;;;;;;5094466;28;20130;-88
2023/10/29 01:13:48;;;;;;;6.10;1.90;;;12.30;99.90;;;;;;5112622;28;20063;-89
2023/10/29 01:16:14;;;;;;;7.97;4.13;;;12.30;99.90;;;;;;5094516;28;20502;-88
2023/10/29 01:18:39;;;;;;;4.32;1.90;;;12.30;99.90;;;;;;5093927;28;20538;-88
2023/10/29 01:21:05;;;;;;;6.93;1.80;;;12.40;99.90;;;;;;5102221;28;20062;-89
2023/10/29 01:23:31;;;;;;;5.65;1.38;;;12.30;99.90;;;;;;5093706;28;20032;-88
2023/10/29 01:25:59;;;;;;;5.55;2.00;;;12.40;99.90;;;;;;5093665;28;20121;-89
2023/10/29 01:28:25;;;;;;;4.00;1.55;;;12.40;99.90;;;;;;5112709;28;20031;-89
2023/10/29 01:30:51;;;;;;;2.67;1.33;;;12.40;99.90;;;;;;5093681;28;20399;-89
2023/10/29 01:33:18;;;;;;;4.07;1.27;;;12.40;99.90;;;;;;5077533;28;20044;-89
2023/10/29 01:35:44;;;;;;;7.80;2.78;;;12.50;99.90;;;;;;5093487;28;20468;-89
2023/10/29 01:38:09;;;;;;;6.07;1.90;;;12.60;99.90;;;;;;5094474;28;20043;-89
2023/10/29 01:40:35;;;;;;;2.88;1.10;;;12.60;99.90;;;;;;5093613;28;20088;-89
2023/10/29 01:43:01;;;;;;;3.30;1.25;;;12.60;99.90;;;;;;5093944;28;20066;-89
2023/10/29 01:45:27;;;;;;;6.63;1.60;;;12.60;99.90;;;;;;5093959;28;20047;-89
2023/10/29 01:47:53;;;;;;;5.43;1.50;;;12.60;99.90;;;;;;5094128;28;20039;-89
2023/10/29 01:50:18;;;;;;;4.20;1.25;;;12.70;99.90;;;;;;5093993;28;20430;-89
2023/10/29 01:52:44;;;;;;;8.02;2.80;;;12.70;99.90;;;;;;5095147;28;20039;-89
2023/10/29 01:55:10;;;;;;;5.05;1.50;;;12.70;99.90;;;;;;5095286;28;20100;-89
2023/10/29 01:57:36;;;;;;;3.42;1.20;;;12.80;99.90;;;;;;5094689;28;20042;-89
2023/10/29 02:00:06;;;;;;;3.63;1.33;;;12.70;99.90;;;;;;5093693;28;20067;-89
2023/10/29 02:02:34;;;;;;;6.88;2.60;;;12.70;99.90;;;;;;5093830;28;20082;-89
2023/10/29 02:05:04;;;;;;;2.38;0.80;;;12.80;99.90;;;;;;5093687;28;20039;-89
2023/10/29 02:07:30;;;;;;;2.88;1.10;;;12.80;99.90;;;;;;5100863;28;20050;-89
2023/10/29 02:09:56;;;;;;;3.80;1.40;;;12.80;99.90;;;;;;5093773;28;20118;-89
2023/10/29 02:12:21;;;;;;;6.88;2.20;;;12.80;99.90;;;;;;5093165;28;20173;-89
2023/10/29 02:14:47;;;;;;;4.70;1.13;;;12.90;99.90;;;;;;5093466;28;20047;-88
2023/10/29 02:17:13;;;;;;;3.22;1.00;;;12.90;99.90;;;;;;5093523;28;20120;-88
2023/10/29 02:19:38;;;;;;;7.05;1.60;;;12.90;99.90;;;;;;5111658;28;20036;-87
2023/10/29 02:22:04;;;;;;;3.28;1.10;;;12.90;99.90;;;;;;5111764;28;20499;-87
2023/10/29 02:24:30;;;;;;;8.07;1.45;;;12.90;99.90;;;;;;5093327;28;20039;-88
2023/10/29 02:26:55;;;;;;;3.30;1.17;;;13.00;99.90;;;;;;5076996;28;20047;-88
2023/10/29 02:29:21;;;;;;;5.78;1.98;;;13.00;99.90;;;;;;5093294;28;20414;-88
2023/10/29 02:31:47;;;;;;;4.13;1.27;;;13.10;99.90;;;;;;5093470;28;20036;-88
2023/10/29 02:34:12;;;;;;;2.05;0.90;;;13.10;99.90;;;;;;5093217;28;20039;-88
2023/10/29 02:36:38;;;;;;;5.85;1.25;;;13.10;99.90;;;;;;5111615;28;20418;-87
2023/10/29 02:39:03;;;;;;;4.65;1.30;;;13.10;99.90;;;;;;5093465;28;20040;-88
2023/10/29 02:41:30;;;;;;;7.45;1.80;;;13.10;99.90;;;;;;5092681;28;20410;-89
2023/10/29 02:43:58;;;;;;;3.67;1.10;;;13.20;99.90;;;;;;5083245;28;20715;-89
2023/10/29 02:46:24;;;;;;;4.72;1.67;;;13.20;99.90;;;;;;5094462;28;20067;-88
2023/10/29 02:48:50;;;;;;;2.28;1.00;;;13.20;99.90;;;;;;5096830;28;20375;-88
2023/10/29 02:51:15;;;;;;;4.40;1.23;;;13.20;99.90;;;;;;5097001;28;20092;-89
2023/10/29 02:53:41;;;;;;;3.47;1.20;;;13.20;99.90;;;;;;5097075;28;20124;-89
2023/10/29 02:56:07;;;;;;;6.15;1.23;;;13.20;99.90;;;;;;5097495;28;20063;-88
2023/10/29 02:58:33;;;;;;;2.00;0.90;;;13.20;99.90;;;;;;5097140;28;20063;-89
2023/10/29 03:01:04;;;;;;;3.70;0.88;;;13.20;99.90;;;;;;5114867;28;20043;-88
2023/10/29 03:03:29;;;;;;;2.25;0.80;;;13.20;99.90;;;;;;5096771;28;20047;-88
2023/10/29 03:05:55;;;;;;;6.47;1.70;;;13.30;99.90;;;;;;5097133;28;20173;-88
2023/10/29 03:08:20;;;;;;;4.97;1.60;;;13.30;99.90;;;;;;5115248;28;20067;-87
2023/10/29 03:10:49;;;;;;;4.70;1.30;;;13.40;99.90;;;;;;5096345;28;20123;-87
2023/10/29 03:13:15;;;;;;;3.65;0.88;;;13.40;99.90;;;;;;5114972;28;20093;-88
2023/10/29 03:15:40;;;;;;;3.17;1.17;;;13.40;99.90;;;;;;5096847;28;20079;-88
2023/10/29 03:18:06;;;;;;;7.30;1.80;;;13.40;99.90;;;;;;5096961;28;20075;-88
2023/10/29 03:20:32;;;;;;;5.85;1.25;;;13.50;99.90;;;;;;5096328;28;20494;-88
2023/10/29 03:22:57;;;;;;;2.13;0.90;;;13.50;99.90;;;;;;5096491;28;20039;-88
2023/10/29 03:25:23;;;;;;;4.93;1.08;;;13.50;99.90;;;;;;5079288;28;20460;-88
2023/10/29 03:27:48;;;;;;;3.95;0.82;;;13.50;99.90;;;;;;5096508;28;20043;-88
2023/10/29 03:30:14;;;;;;;6.10;1.80;;;13.50;99.90;;;;;;5101014;28;20039;-88
2023/10/29 03:32:40;;;;;;;5.55;1.65;;;13.60;99.90;;;;;;5096658;28;20490;-88
2023/10/29 03:35:06;;;;;;;5.68;1.70;;;13.60;99.90;;;;;;5096487;28;20044;-89
2023/10/29 03:37:32;;;;;;;3.88;1.20;;;13.70;99.90;;;;;;5096345;28;20038;-88
2023/10/29 03:39:58;;;;;;;5.88;1.25;;;13.70;99.90;;;;;;5095717;28;20043;-88
2023/10/29 03:42:24;;;;;;;4.35;1.52;;;13.60;99.90;;;;;;5095393;28;20047;-89
2023/10/29 03:44:49;;;;;;;5.72;1.20;;;13.60;99.90;;;;;;5095960;28;20082;-89
2023/10/29 03:47:15;;;;;;;4.57;1.17;;;13.60;99.90;;;;;;5096433;28;20043;-88
2023/10/29 03:49:44;;;;;;;6.78;1.80;;;13.60;99.90;;;;;;5095942;28;20036;-88
2023/10/29 03:52:09;;;;;;;4.10;0.88;;;13.70;99.90;;;;;;5095940;28;20340;-89
2023/10/29 03:54:35;;;;;;;7.43;1.60;;;13.60;99.90;;;;;;5095240;28;20555;-89
2023/10/29 03:57:01;;;;;;;4.20;1.10;;;13.70;99.90;;;;;;5095019;28;20039;-88
2023/10/29 03:59:26;;;;;;;4.55;1.10;;;13.70;99.90;;;;;;5114061;28;20039;-88
2023/10/29 04:01:52;;;;;;;5.75;1.98;;;13.60;99.90;;;;;;5095556;28;20494;-88
2023/10/29 04:04:18;;;;;;;5.57;1.80;;;13.70;99.90;;;;;;5095573;28;20043;-89
2023/10/29 04:06:44;;;;;;;1.10;0.57;;;13.70;99.90;;;;;;5095626;28;20105;-89
2023/10/29 04:09:09;;;;;;;3.28;0.90;;;13.70;99.90;;;;;;5078113;28;20044;-88
2023/10/29 04:11:36;;;;;;;3.08;0.98;;;13.70;99.90;;;;;;5095351;28;20050;-88
2023/10/29 04:14:01;;;;;;;6.07;1.80;;;13.70;99.90;;;;;;5095171;28;20093;-88
2023/10/29 04:16:27;;;;;;;3.60;1.05;;;13.70;99.90;;;;;;5095393;28;20047;-89
2023/10/29 04:18:53;;;;;;;1.13;0.60;;;13.80;99.90;;;;;;5095782;28;20047;-89
2023/10/29 04:21:19;;;;;;;2.30;0.70;;;13.70;99.90;;;;;;5095223;28;20494;-90
2023/10/29 04:23:44;;;;;;;2.08;0.63;;;13.70;99.90;;;;;;5094796;28;20051;-89
2023/10/29 04:26:10;;;;;;;2.05;0.57;;;13.80;99.90;;;;;;5095357;28;20063;-89
2023/10/29 04:28:36;;;;;;;2.03;0.47;;;13.80;99.90;;;;;;5096150;28;20452;-89
2023/10/29 04:31:02;;;;;;;5.43;1.35;;;13.80;99.90;;;;;;5095086;28;20048;-89
2023/10/29 04:33:28;;;;;;;5.68;1.30;;;13.90;99.90;;;;;;5094395;28;20039;-89
2023/10/29 04:35:54;;;;;;;1.27;0.57;;;14.00;99.90;;;;;;5112664;28;20032;-90
2023/10/29 04:38:19;;;;;;;1.50;0.73;;;14.00;99.90;;;;;;5094898;28;20036;-89
2023/10/29 04:40:45;;;;;;;1.83;0.68;;;14.00;99.90;;;;;;5095023;28;20537;-89
2023/10/29 04:43:11;;;;;;;1.30;0.55;;;14.00;99.90;;;;;;5113607;28;20035;-89
2023/10/29 04:45:37;;;;;;;2.90;0.80;;;14.00;99.90;;;;;;5094916;28;20055;-89
2023/10/29 04:48:03;;;;;;;2.78;0.98;;;14.00;99.90;;;;;;5094978;28;20053;-89
2023/10/29 04:50:30;;;;;;;5.30;1.17;;;14.00;99.90;;;;;;5094674;28;20118;-90
2023/10/29 04:52:57;;;;;;;2.25;0.70;;;14.00;99.90;;;;;;5094723;28;20047;-90
2023/10/29 04:55:22;;;;;;;1.08;0.30;;;14.00;99.90;;;;;;5093942;28;20040;-90
2023/10/29 04:57:48;;;;;;;1.95;0.57;;;14.00;99.90;;;;;;5095118;28;20617;-89
2023/10/29 05:00:13;;;;;;;4.57;1.20;;;13.90;99.90;;;;;;5093781;28;20055;-89
2023/10/29 05:02:39;;;;;;;5.00;0.63;;;14.00;99.90;;;;;;5102812;28;20047;-89
2023/10/29 05:05:06;;;;;;;1.63;0.38;;;14.00;99.90;;;;;;5094610;28;20051;-89
2023/10/29 05:07:32;;;;;;;4.57;1.50;;;14.00;99.90;;;;;;5094828;28;20043;-90
2023/10/29 05:09:59;;;;;;;3.15;1.10;;;14.00;99.90;;;;;;5093491;28;20048;-89
2023/10/29 05:12:24;;;;;;;1.45;0.50;;;14.10;99.90;;;;;;5091163;28;20832;-85
2023/10/29 05:14:53;;;;;;;1.40;0.55;;;14.10;99.90;;;;;;5101646;28;20040;-89
2023/10/29 05:17:19;;;;;;;1.10;0.47;;;14.10;99.90;;;;;;5104188;28;20092;-89
2023/10/29 05:19:44;;;;;;;4.60;1.02;;;14.00;99.90;;;;;;5104118;28;20067;-89
2023/10/29 05:22:11;;;;;;;1.08;0.47;;;14.00;99.90;;;;;;5122079;28;20043;-89
2023/10/29 05:24:36;;;;;;;2.15;0.43;;;14.00;99.90;;;;;;5106907;28;20051;-88
2023/10/29 05:27:03;;;;;;;1.55;0.52;;;14.00;99.90;;;;;;5095477;28;20092;-89
2023/10/29 05:29:29;;;;;;;3.85;0.55;;;14.10;99.90;;;;;;5094359;28;20082;-89
2023/10/29 05:31:54;;;;;;;2.53;0.50;;;14.00;99.90;;;;;;5100431;28;20502;-88
2023/10/29 05:34:20;;;;;;;6.05;1.30;;;14.00;99.90;;;;;;5093590;28;20051;-88
2023/10/29 05:36:47;;;;;;;1.77;0.82;;;14.10;99.90;;;;;;5093964;28;20039;-88
2023/10/29 05:39:14;;;;;;;2.83;0.55;;;14.10;99.90;;;;;;5093801;28;20044;-88
2023/10/29 05:41:40;;;;;;;5.10;1.10;;;14.00;99.90;;;;;;5093565;28;20046;-88
2023/10/29 05:44:06;;;;;;;4.55;1.10;;;14.10;99.90;;;;;;5112115;28;20035;-87
2023/10/29 05:46:32;;;;;;;5.20;1.42;;;14.20;99.90;;;;;;5093838;28;20494;-88
2023/10/29 05:48:58;;;;;;;2.10;0.60;;;14.20;99.90;;;;;;5093311;28;20040;-89
2023/10/29 05:51:24;;;;;;;0.65;0.30;;;14.10;99.90;;;;;;5076248;28;20047;-89
2023/10/29 05:53:49;;;;;;;1.90;0.50;;;14.10;99.90;;;;;;5111763;28;20043;-89
2023/10/29 05:56:15;;;;;;;0.98;0.45;;;14.10;99.90;;;;;;5093953;28;20523;-88
2023/10/29 05:58:41;;;;;;;4.40;1.02;;;14.10;99.90;;;;;;5093424;28;20086;-88
2023/10/29 06:01:07;;;;;;;5.03;1.30;;;14.10;99.90;;;;;;5093481;28;20075;-88
2023/10/29 06:03:34;;;;;;;1.77;0.55;;;14.10;99.90;;;;;;5093500;28;20093;-88
2023/10/29 06:06:00;;;;;;;5.25;1.40;;;14.20;99.90;;;;;;5093851;28;20052;-88
2023/10/29 06:08:25;;;;;;;0.93;0.40;;;14.20;99.90;;;;;;5093900;28;20395;-88
2023/10/29 06:10:51;;;;;;;1.35;0.32;;;14.20;99.90;;;;;;5092872;28;20044;-88
2023/10/29 06:13:16;;;;;;;2.33;0.68;;;14.20;99.90;;;;;;5093504;28;20506;-89
2023/10/29 06:15:42;;;;;;;6.20;1.23;;;14.20;99.90;;;;;;5111552;28;20406;-89
2023/10/29 06:18:08;;;;;;;5.65;1.17;;;14.30;99.90;;;;;;5093196;28;20577;-89
2023/10/29 06:20:34;;;;;;;5.78;1.40;;;14.40;99.90;;;;;;5111092;28;20168;-89
2023/10/29 06:22:59;;;;;;;7.35;1.63;;;14.40;99.90;;;;;;5076573;28;20402;-89
2023/10/29 06:25:26;;;;;;;1.38;0.60;;;14.40;99.90;;;;;;5092768;28;20128;-88
2023/10/29 06:27:52;;;;;;;1.77;0.40;;;14.30;99.90;;;;;;5076715;28;20048;-89
2023/10/29 06:30:18;;;;;;;4.55;0.93;;;14.30;99.90;;;;;;5111193;28;20047;-90
2023/10/29 06:32:43;;;;;;;1.75;0.65;;;14.30;99.90;;;;;;5093599;28;20514;-89
2023/10/29 06:35:09;;;;;;;0.93;0.60;;;14.20;99.90;;;;;;5097436;28;20047;-89
2023/10/29 06:37:35;;;;;;;0.80;0.30;;;14.20;99.90;;;;;;5094782;28;20035;-89
2023/10/29 06:40:01;;;;;;;1.30;0.52;;;14.20;99.90;;;;;;5093428;28;20039;-89
2023/10/29 06:42:27;;;;;;;7.22;1.20;;;14.20;99.90;;;;;;5092980;28;20052;-90
2023/10/29 06:44:52;;;;;;;2.53;0.60;;;14.20;99.90;;;;;;5095545;28;20132;-90
2023/10/29 06:47:18;;;;;;;4.43;1.08;;;14.20;99.90;;;;;;5096662;28;20050;-89
2023/10/29 06:49:43;;;;;;;5.35;1.50;;;14.20;99.90;;;;;;5101600;28;20062;-89
2023/10/29 06:52:10;;;;;;;2.47;0.77;;;14.20;99.90;;;;;;5092550;28;20043;-89
2023/10/29 06:54:35;;;;;;;6.13;1.15;;;14.20;99.90;;;;;;5093456;28;20078;-90
2023/10/29 06:57:02;;;;;;;0.95;0.43;;;14.20;99.90;;;;;;5093448;28;20067;-89
2023/10/29 06:59:28;;;;;;;5.25;0.57;;;14.20;99.90;;;;;;5092939;28;20040;-89
2023/10/29 07:01:57;;;;;;;4.75;0.90;;;14.20;99.90;;;;;;5110335;28;20571;-89
2023/10/29 07:04:22;;;;;;;2.20;0.57;;;14.10;99.90;;;;;;5076000;28;20040;-89
2023/10/29 07:06:49;;;;;;;4.82;0.98;;;14.10;99.90;;;;;;5092971;28;20035;-90
2023/10/29 07:09:15;;;;;;;1.95;0.45;;;14.10;99.90;;;;;;5093111;28;20052;-90
2023/10/29 07:11:42;;;;;;;4.70;1.13;;;14.20;99.90;;;;;;5092782;28;20039;-89
2023/10/29 07:14:08;;;;;;;2.47;0.52;;;14.20;99.90;;;;;;5096794;28;20068;-90
2023/10/29 07:16:33;;;;;;;6.68;1.20;;;14.20;99.90;;;;;;5092469;28;20118;-89
2023/10/29 07:18:59;;;;;;;5.60;1.20;;;14.20;99.90;;;;;;5092796;28;20702;-90
2023/10/29 07:21:25;;;;;;;1.25;0.45;;;14.20;99.90;;;;;;5110235;28;20151;-90
2023/10/29 07:23:50;;;;;;;6.22;1.17;;;14.20;99.90;;;;;;5093220;28;20490;-89
2023/10/29 07:26:16;;;;;;;0.98;0.30;;;14.20;99.90;;;;;;5084203;28;20046;-89
2023/10/29 07:28:41;;;;;;;2.42;0.70;;;14.20;99.90;;;;;;5092032;28;20126;-89
2023/10/29 07:31:07;;;;;;;3.05;0.40;;;14.10;99.90;;;;;;5092522;28;20043;-90
2023/10/29 07:33:32;;;;;;;5.72;1.30;;;14.10;99.90;;;;;;5102633;28;20118;-89
2023/10/29 07:36:02;;;;;;;4.68;1.38;;;14.10;99.90;;;;;;5106980;27;20114;-90
2023/10/29 07:38:28;;;;;;;3.60;0.60;;;14.10;99.90;;;;;;5098036;28;20051;-88
2023/10/29 07:40:54;;;;;;;1.80;0.40;;;14.00;99.90;;;;;;5104641;28;20043;-90
2023/10/29 07:43:19;;;;;;;3.13;0.50;;;14.00;99.90;;;;;;5095905;28;20044;-90
2023/10/29 07:45:47;;;;;;;1.70;0.40;;;14.00;99.90;;;;;;5106777;28;20054;-90
2023/10/29 07:48:13;;;;;;;2.35;0.63;;;13.90;99.90;;;;;;5102383;28;20457;-90
2023/10/29 07:50:39;;;;;;;1.65;0.68;;;14.00;99.90;;;;;;5095548;28;20075;-89
2023/10/29 07:53:05;;;;;;;7.65;1.50;;;14.00;99.90;;;;;;5087866;27;20035;-89
2023/10/29 07:55:30;;;;;;;5.28;1.25;;;14.00;99.90;;;;;;5108272;27;20035;-89
2023/10/29 07:57:56;;;;;;;5.40;1.10;;;14.10;99.90;;;;;;5104060;27;20036;-90
2023/10/29 08:00:22;;;;;;;2.30;0.68;;;14.10;99.90;;;;;;5101676;27;20127;-90
2023/10/29 08:02:47;;;;;;;0.88;0.45;;;14.00;99.90;;;;;;5105078;27;20044;-89
2023/10/29 08:05:14;;;;;;;2.00;0.68;;;13.90;99.90;;;;;;5103235;27;20043;-90
2023/10/29 08:07:40;;;;;;;6.22;0.82;;;13.80;99.90;;;;;;5086833;27;20195;-90
2023/10/29 08:10:07;;;;;;;6.35;1.42;;;13.80;99.90;;;;;;5103640;27;20157;-90
2023/10/29 08:12:34;;;;;;;6.63;1.27;;;13.80;99.90;;;;;;5104111;27;20039;-89
2023/10/29 08:15:00;;;;;;;7.28;1.23;;;13.80;99.90;;;;;;5088123;27;20697;-89
2023/10/29 08:17:25;;;;;;;7.63;1.38;;;13.90;99.90;;;;;;5102980;27;20039;-89
2023/10/29 08:19:52;;;;;;;4.95;0.73;;;13.90;99.90;;;;;;5105211;27;20046;-89
2023/10/29 08:22:17;;;;;;;3.38;0.60;;;13.90;99.90;;;;;;5097433;28;20044;-89
2023/10/29 08:24:43;;;;;;;2.55;0.63;;;13.80;99.90;;;;;;5113980;28;20122;-89
2023/10/29 08:27:09;;;;;;;2.72;0.63;;;13.80;99.90;;;;;;5078917;28;20533;-90
2023/10/29 08:29:36;;;;;;;1.45;0.40;;;13.90;99.90;;;;;;5113412;28;20040;-90
2023/10/29 08:32:02;;;;;;;2.28;0.50;;;13.90;99.90;;;;;;5103016;28;20118;-90
2023/10/29 08:34:28;;;;;;;6.75;1.20;;;13.90;99.90;;;;;;5102330;28;20039;-90
2023/10/29 08:36:54;;;;;;;3.70;0.63;;;14.00;99.90;;;;;;5113373;28;20080;-89
2023/10/29 08:39:21;;;;;;;1.00;0.47;;;14.00;99.90;;;;;;5094719;28;20043;-89
2023/10/29 08:41:48;;;;;;;3.88;0.90;;;14.00;99.90;;;;;;5086754;28;20123;-90
2023/10/29 08:44:13;;;;;;;1.40;0.45;;;14.00;99.90;;;;;;5111825;28;20051;-89
2023/10/29 08:46:41;;;;;;;6.50;1.30;;;14.00;99.90;;;;;;5113079;28;20035;-89
2023/10/29 08:49:07;;;;;;;7.35;1.40;;;14.10;99.90;;;;;;5111552;28;20526;-89
2023/10/29 08:51:33;;;;;;;8.68;1.63;;;14.20;99.90;;;;;;5094432;28;20100;-89
2023/10/29 08:53:59;;;;;;;2.72;0.75;;;14.20;99.90;;;;;;5095400;28;20039;-89
2023/10/29 08:56:25;;;;;;;7.45;1.30;;;14.20;99.90;;;;;;5078005;28;20035;-89
2023/10/29 08:58:50;;;;;;;4.45;0.70;;;14.30;99.90;;;;;;5095487;28;20056;-89
2023/10/29 09:01:17;;;;;;;0.63;0.13;;;14.40;99.90;;;;;;5103308;28;20039;-90
2023/10/29 09:03:43;;;;;;;7.93;2.00;;;14.30;99.90;;;;;;5095091;28;20047;-89
2023/10/29 09:06:08;;;;;;;4.72;0.82;;;14.40;99.90;;;;;;5097372;27;20548;-90
2023/10/29 09:08:34;;;;;;;7.43;1.88;;;14.40;99.90;;;;;;5093839;28;20514;-90
2023/10/29 09:11:00;;;;;;;11.43;2.47;;;14.40;99.90;;;;;;5093973;28;20028;-89
2023/10/29 09:13:26;;;;;;;4.85;0.85;;;14.40;99.90;;;;;;5094170;28;20550;-90
2023/10/29 09:15:52;;;;;;;4.50;0.57;;;14.40;99.90;;;;;;5095660;28;20039;-90
2023/10/29 09:18:19;;;;;;;3.65;1.15;;;14.40;99.90;;;;;;5093776;28;20035;-89
2023/10/29 09:20:48;;;;;;;5.88;1.33;;;14.40;99.90;;;;;;5094547;28;20048;-90
2023/10/29 09:23:17;;;;;;;3.67;0.55;;;14.40;99.90;;;;;;5102093;27;20042;-90
2023/10/29 09:25:45;;;;;;;3.63;0.70;;;14.30;99.90;;;;;;5101845;27;20047;-90
2023/10/29 09:28:13;;;;;;;3.83;0.73;;;14.30;99.90;;;;;;5120047;27;20055;-89
2023/10/29 09:30:40;;;;;;;2.53;0.52;;;14.30;99.90;;;;;;5102300;27;20558;-89
2023/10/29 09:33:07;;;;;;;10.80;1.67;;;14.30;99.90;;;;;;5105682;27;20050;-90
2023/10/29 09:35:34;;;;;;;4.38;0.75;;;14.30;99.90;;;;;;5107976;27;20308;-89
2023/10/29 09:37:59;;;;;;;2.45;0.68;;;14.40;99.90;;;;;;5105872;27;20066;-87
2023/10/29 09:40:25;;;;;;;1.40;0.47;;;14.40;99.90;;;;;;5120150;27;20066;-87
2023/10/29 09:42:55;;;;;;;8.55;1.70;;;14.50;99.90;;;;;;5103832;27;20043;-90
2023/10/29 09:45:26;;;;;;;7.40;1.67;;;14.60;99.90;;;;;;5103405;27;20043;-89
2023/10/29 09:47:56;;;;;;;5.18;0.88;;;14.60;99.90;;;;;;5087246;27;20032;-89
2023/10/29 09:50:22;;;;;;;4.93;1.10;;;14.60;99.90;;;;;;5122130;27;20038;-88
2023/10/29 09:52:55;;;;;;;3.88;1.05;;;14.60;99.90;;;;;;5121829;27;20087;-89
2023/10/29 09:55:21;;;;;;;8.90;1.90;;;14.60;99.90;;;;;;5085967;27;20057;-89
2023/10/29 09:57:48;;;;;;;4.13;0.90;;;14.80;99.90;;;;;;5104577;27;20035;-89
2023/10/29 10:00:15;;;;;;;10.20;2.13;;;14.80;99.90;;;;;;5105841;27;20040;-89
2023/10/29 10:02:51;;;;;;;8.13;1.75;;;14.90;99.90;;;;;;5104145;28;20043;-88
2023/10/29 10:05:19;;;;;;;8.63;1.95;;;14.90;99.90;;;;;;5104662;27;20056;-88
2023/10/29 10:07:44;;;;;;;1.75;0.43;;;15.00;99.90;;;;;;5085871;28;20054;-89
2023/10/29 10:10:10;;;;;;;3.45;0.90;;;14.90;99.90;;;;;;5080599;28;20048;-88
2023/10/29 10:12:49;;;;;;;6.32;1.08;;;14.80;99.90;;;;;;5097135;28;20402;-89
2023/10/29 10:15:19;;;;;;;1.55;0.38;;;14.70;99.90;;;;;;5094966;28;20261;-89
2023/10/29 10:17:46;;;;;;;5.20;1.10;;;14.70;99.90;;;;;;5068394;28;20042;-89
2023/10/29 10:20:13;;;;;;;5.40;1.08;;;14.70;99.90;;;;;;5093788;28;20058;-88
2023/10/29 10:22:39;;;;;;;1.83;0.57;;;14.60;99.90;;;;;;5076824;28;20039;-89
2023/10/29 10:25:05;;;;;;;4.00;1.00;;;14.60;99.90;;;;;;5111750;28;20043;-89
2023/10/29 10:27:47;;;;;;;9.05;1.95;;;14.70;99.90;;;;;;5093845;28;20035;-88
2023/10/29 10:30:40;;;;;;;11.15;2.05;;;14.80;99.90;;;;;;5083667;28;20039;-88
2023/10/29 10:33:20;;;;;;;4.73;0.97;;;14.80;99.90;;;;;;5094740;28;20140;-88
2023/10/29 10:35:50;;;;;;;2.70;0.43;;;14.90;99.90;;;;;;5086322;28;20118;-89
2023/10/29 10:38:19;;;;;;;1.02;0.60;;;14.90;99.90;;;;;;5098848;28;20040;-89
2023/10/29 10:40:45;;;;;;;3.67;0.73;;;14.90;99.90;;;;;;5090479;28;20048;-89
2023/10/29 10:43:10;;;;;;;3.05;0.63;;;15.00;99.90;;;;;;5103140;28;20047;-88
2023/10/29 10:45:37;;;;;;;8.70;2.40;;;15.00;99.90;;;;;;5102113;28;20067;-89
2023/10/29 10:48:06;;;;;;;10.35;2.30;;;15.10;99.90;;;;;;5099917;28;20035;-90
2023/10/29 10:50:33;;;;;;;10.10;2.30;;;15.20;99.90;;;;;;5100301;28;20563;-89
2023/10/29 10:52:59;;;;;;;3.30;0.88;;;15.30;99.90;;;;;;5101901;28;20039;-89
2023/10/29 10:55:25;;;;;;;3.67;0.70;;;15.30;99.90;;;;;;5076505;28;20644;-89
2023/10/29 10:57:52;;;;;;;12.10;2.30;;;15.20;99.90;;;;;;5100640;28;20039;-90
2023/10/29 11:00:21;;;;;;;9.15;1.95;;;15.20;99.90;;;;;;5093318;28;20122;-89
2023/10/29 11:02:49;;;;;;;8.15;1.20;;;15.20;99.90;;;;;;5093597;28;20093;-89
2023/10/29 11:05:16;;;;;;;9.93;2.10;;;15.10;99.90;;;;;;5111634;28;20059;-89
2023/10/29 11:07:43;;;;;;;2.58;0.60;;;15.00;99.90;;;;;;5103013;28;20039;-89
2023/10/29 11:10:13;;;;;;;11.45;2.35;;;15.00;99.90;;;;;;5079980;28;20391;-92
2023/10/29 11:12:39;;;;;;;10.00;2.40;;;15.00;99.90;;;;;;5087108;28;20126;-91
2023/10/29 11:15:15;;;;;;;2.47;0.70;;;15.00;99.90;;;;;;5097376;28;20043;-91
2023/10/29 11:17:58;;;;;;;1.27;0.38;;;15.00;99.90;;;;;;5097042;28;20078;-91
2023/10/29 11:20:41;;;;;;;8.55;2.00;;;15.10;99.90;;;;;;5115141;28;20035;-90
2023/10/29 11:23:13;;;;;;;3.20;0.90;;;15.20;99.90;;;;;;5096592;28;20503;-88
2023/10/29 11:25:39;;;;;;;10.60;2.15;;;15.30;99.90;;;;;;5113456;28;20072;-88
2023/10/29 11:28:05;;;;;;;3.35;0.82;;;15.40;99.90;;;;;;5096528;28;20071;-88
2023/10/29 11:30:31;;;;;;;6.97;1.45;;;15.40;99.90;;;;;;5096060;28;20402;-88
2023/10/29 11:33:06;;;;;;;4.15;1.10;;;15.40;99.90;;;;;;5096193;28;20035;-88
2023/10/29 11:35:33;;;;;;;4.40;1.02;;;15.40;99.90;;;;;;5096318;28;20092;-89
2023/10/29 11:38:00;;;;;;;2.25;0.40;;;15.40;99.90;;;;;;5104881;28;20051;-88
2023/10/29 11:40:30;;;;;;;11.48;2.42;;;15.60;99.90;;;;;;5104324;28;20047;-88
2023/10/29 11:43:12;;;;;;;4.32;0.65;;;15.70;99.90;;;;;;5095370;28;20108;-88
2023/10/29 11:45:39;;;;;;;8.80;2.05;;;15.80;99.90;;;;;;5095698;28;20135;-89
2023/10/29 11:48:16;;;;;;;9.93;1.20;;;15.80;99.90;;;;;;5095784;28;20478;-89
2023/10/29 11:51:11;;;;;;;6.93;1.88;;;15.80;99.90;;;;;;5087197;28;20048;-89
2023/10/29 11:53:37;;;;;;;10.98;2.10;;;15.90;99.90;;;;;;5103846;28;20050;-89
2023/10/29 11:56:09;;;;;;;6.70;0.82;;;15.90;99.90;;;;;;5095899;28;20043;-89
2023/10/29 11:58:36;;;;;;;7.85;1.80;;;15.80;99.90;;;;;;5114426;28;20039;-89
2023/10/29 12:01:02;;;;;;;5.53;1.13;;;15.80;99.90;;;;;;5114322;28;20031;-89
2023/10/29 12:03:31;;;;;;;4.95;0.73;;;15.70;99.90;;;;;;5103796;28;20090;-89
2023/10/29 12:05:57;;;;;;;6.88;1.25;;;15.60;99.90;;;;;;5095785;28;20047;-89
2023/10/29 12:08:23;;;;;;;7.75;0.95;;;15.50;99.90;;;;;;5077916;28;20055;-89
2023/10/29 12:10:54;;;;;;;8.50;2.38;;;15.40;99.90;;;;;;5120753;27;20042;-89
2023/10/29 12:13:19;;;;;;;3.63;0.85;;;15.40;99.90;;;;;;5096601;28;20042;-89
2023/10/29 12:15:58;;;;;;;4.85;1.13;;;15.30;99.90;;;;;;5096747;28;20119;-89
2023/10/29 12:18:25;;;;;;;9.52;1.88;;;15.20;99.90;;;;;;5101522;28;20491;-89
2023/10/29 12:21:01;;;;;;;7.13;1.38;;;15.20;99.90;;;;;;5095453;28;20063;-89
2023/10/29 12:23:27;;;;;;;8.68;1.88;;;15.20;99.90;;;;;;5095958;28;20052;-88
2023/10/29 12:25:53;;;;;;;4.30;0.98;;;15.20;99.90;;;;;;5113522;28;20044;-88
2023/10/29 12:28:20;;;;;;;7.40;1.65;;;15.10;99.90;;;;;;5095768;28;20051;-89
2023/10/29 12:30:50;;;;;;;8.20;1.70;;;15.10;99.90;;;;;;5095170;28;20177;-89
2023/10/29 12:33:23;;;;;;;4.03;0.60;;;15.10;99.90;;;;;;5103292;28;20796;-88
2023/10/29 12:35:50;;;;;;;11.23;2.50;;;15.00;99.90;;;;;;5103264;28;20050;-88
2023/10/29 12:38:17;;;;;;;2.63;0.60;;;15.00;99.90;;;;;;5103695;28;20168;-88
2023/10/29 12:41:08;;;;;;;4.22;1.42;;;15.00;99.90;;;;;;5070214;28;20110;-88
2023/10/29 12:43:52;;;;;;;10.45;1.95;;;14.90;99.90;;;;;;5077907;28;20175;-88